sensor_id;sensor_type;location;lat;lon;timestamp;temperature;humidity
7014;DHT22;3547;50.774;12.918;2024-02-04T00:00:18;7.20;99.90
7014;DHT22;3547;50.774;12.918;2024-02-04T00:02:47;7.20;99.90
7014;DHT22;3547;50.774;12.918;2024-02-04T00:05:28;7.20;99.90
7014;DHT22;3547;50.774;12.918;2024-02-04T00:11:21;7.20;99.90
7014;DHT22;3547;50.774;12.918;2024-02-04T00:13:47;7.20;99.90
7014;DHT22;3547;50.774;12.918;2024-02-04T00:16:14;7.20;99.90
7014;DHT22;3547;50.774;12.918;2024-02-04T00:18:40;7.10;99.90
7014;DHT22;3547;50.774;12.918;2024-02-04T00:21:09;7.10;99.90
7014;DHT22;3547;50.774;12.918;2024-02-04T00:29:00;7.10;1.00
7014;DHT22;3547;50.774;12.918;2024-02-04T00:36:43;7.00;1.00
7014;DHT22;3547;50.774;12.918;2024-02-04T00:39:13;7.00;1.00
7014;DHT22;3547;50.774;12.918;2024-02-04T00:41:39;6.90;1.00
7014;DHT22;3547;50.774;12.918;2024-02-04T00:44:05;6.90;1.00
7014;DHT22;3547;50.774;12.918;2024-02-04T00:46:32;6.90;1.00
7014;DHT22;3547;50.774;12.918;2024-02-04T00:48:58;6.90;1.00
7014;DHT22;3547;50.774;12.918;2024-02-04T00:51:29;6.90;1.00
7014;DHT22;3547;50.774;12.918;2024-02-04T00:53:55;7.00;1.00
7014;DHT22;3547;50.774;12.918;2024-02-04T00:56:21;6.90;1.00
7014;DHT22;3547;50.774;12.918;2024-02-04T00:58:48;7.00;1.00
7014;DHT22;3547;50.774;12.918;2024-02-04T01:01:14;6.90;1.00
7014;DHT22;3547;50.774;12.918;2024-02-04T01:03:40;7.00;1.00
7014;DHT22;3547;50.774;12.918;2024-02-04T01:06:06;7.00;1.00
7014;DHT22;3547;50.774;12.918;2024-02-04T01:08:33;7.00;1.00
7014;DHT22;3547;50.774;12.918;2024-02-04T01:11:00;7.00;1.00
7014;DHT22;3547;50.774;12.918;2024-02-04T01:13:28;7.10;1.00
7014;DHT22;3547;50.774;12.918;2024-02-04T01:15:54;7.10;1.00
7014;DHT22;3547;50.774;12.918;2024-02-04T01:18:23;7.10;1.00
7014;DHT22;3547;50.774;12.918;2024-02-04T01:20:51;7.10;1.00
7014;DHT22;3547;50.774;12.918;2024-02-04T01:23:18;7.10;1.00
7014;DHT22;3547;50.774;12.918;2024-02-04T01:25:47;7.10;1.00
7014;DHT22;3547;50.774;12.918;2024-02-04T01:28:13;7.10;1.00
7014;DHT22;3547;50.774;12.918;2024-02-04T01:30:40;7.10;1.00
7014;DHT22;3547;50.774;12.918;2024-02-04T01:33:06;7.10;1.00
7014;DHT22;3547;50.774;12.918;2024-02-04T01:35:32;7.10;1.00
7014;DHT22;3547;50.774;12.918;2024-02-04T01:37:58;7.00;1.00
7014;DHT22;3547;50.774;12.918;2024-02-04T01:40:24;7.10;1.00
7014;DHT22;3547;50.774;12.918;2024-02-04T01:42:50;7.10;1.00
7014;DHT22;3547;50.774;12.918;2024-02-04T01:45:17;7.10;1.00
7014;DHT22;3547;50.774;12.918;2024-02-04T01:47:43;7.10;1.00
7014;DHT22;3547;50.774;12.918;2024-02-04T01:53:34;7.10;1.00
7014;DHT22;3547;50.774;12.918;2024-02-04T01:56:00;7.10;1.00
7014;DHT22;3547;50.774;12.918;2024-02-04T01:58:27;7.10;1.00
7014;DHT22;3547;50.774;12.918;2024-02-04T02:00:54;7.10;1.00
7014;DHT22;3547;50.774;12.918;2024-02-04T02:03:21;7.20;1.00
7014;DHT22;3547;50.774;12.918;2024-02-04T02:05:48;7.20;1.00
7014;DHT22;3547;50.774;12.918;2024-02-04T02:08:15;7.20;1.00
7014;DHT22;3547;50.774;12.918;2024-02-04T02:10:41;7.20;1.00
7014;DHT22;3547;50.774;12.918;2024-02-04T02:13:27;7.30;1.00
7014;DHT22;3547;50.774;12.918;2024-02-04T02:16:00;7.20;1.00
7014;DHT22;3547;50.774;12.918;2024-02-04T02:18:37;7.30;1.00
7014;DHT22;3547;50.774;12.918;2024-02-04T02:21:26;7.30;1.00
7014;DHT22;3547;50.774;12.918;2024-02-04T02:26:51;7.20;99.90
7014;DHT22;3547;50.774;12.918;2024-02-04T02:29:19;7.20;1.00
7014;DHT22;3547;50.774;12.918;2024-02-04T02:31:45;7.20;1.00
7014;DHT22;3547;50.774;12.918;2024-02-04T02:40:25;7.30;99.90
7014;DHT22;3547;50.774;12.918;2024-02-04T02:42:55;7.30;99.90
7014;DHT22;3547;50.774;12.918;2024-02-04T02:45:23;7.30;99.90
7014;DHT22;3547;50.774;12.918;2024-02-04T02:47:51;7.20;99.90
7014;DHT22;3547;50.774;12.918;2024-02-04T02:50:23;7.20;99.90
7014;DHT22;3547;50.774;12.918;2024-02-04T02:52:49;7.20;99.90
7014;DHT22;3547;50.774;12.918;2024-02-04T02:55:17;7.20;99.90
7014;DHT22;3547;50.774;12.918;2024-02-04T02:57:43;7.20;99.90
7014;DHT22;3547;50.774;12.918;2024-02-04T03:00:10;7.20;99.90
7014;DHT22;3547;50.774;12.918;2024-02-04T03:02:39;7.10;99.90
7014;DHT22;3547;50.774;12.918;2024-02-04T03:05:07;7.10;99.90
7014;DHT22;3547;50.774;12.918;2024-02-04T03:07:34;7.20;1.00
7014;DHT22;3547;50.774;12.918;2024-02-04T03:10:00;7.20;1.00
7014;DHT22;3547;50.774;12.918;2024-02-04T03:12:26;7.10;1.00
7014;DHT22;3547;50.774;12.918;2024-02-04T03:14:52;7.10;1.00
7014;DHT22;3547;50.774;12.918;2024-02-04T03:17:19;7.20;1.00
7014;DHT22;3547;50.774;12.918;2024-02-04T03:19:51;7.20;1.00
7014;DHT22;3547;50.774;12.918;2024-02-04T03:22:18;7.10;1.00
7014;DHT22;3547;50.774;12.918;2024-02-04T03:24:44;7.20;1.00
7014;DHT22;3547;50.774;12.918;2024-02-04T03:27:12;7.20;1.00
7014;DHT22;3547;50.774;12.918;2024-02-04T03:29:57;7.10;1.00
7014;DHT22;3547;50.774;12.918;2024-02-04T03:32:25;7.10;1.00
7014;DHT22;3547;50.774;12.918;2024-02-04T03:34:56;7.10;1.00
7014;DHT22;3547;50.774;12.918;2024-02-04T03:37:26;7.00;1.00
7014;DHT22;3547;50.774;12.918;2024-02-04T03:39:55;7.00;1.00
7014;DHT22;3547;50.774;12.918;2024-02-04T03:42:26;6.90;1.00
7014;DHT22;3547;50.774;12.918;2024-02-04T03:44:55;6.90;1.00
7014;DHT22;3547;50.774;12.918;2024-02-04T03:47:30;6.80;1.00
7014;DHT22;3547;50.774;12.918;2024-02-04T03:50:06;6.80;1.00
7014;DHT22;3547;50.774;12.918;2024-02-04T04:15:54;6.90;1.00
7014;DHT22;3547;50.774;12.918;2024-02-04T04:24:34;7.00;1.00
7014;DHT22;3547;50.774;12.918;2024-02-04T04:27:04;7.00;99.90
7014;DHT22;3547;50.774;12.918;2024-02-04T04:29:37;7.00;99.90
7014;DHT22;3547;50.774;12.918;2024-02-04T04:32:26;7.00;99.90
7014;DHT22;3547;50.774;12.918;2024-02-04T04:35:04;7.10;1.00
7014;DHT22;3547;50.774;12.918;2024-02-04T04:37:37;7.10;99.90
7014;DHT22;3547;50.774;12.918;2024-02-04T04:40:09;7.10;99.90
7014;DHT22;3547;50.774;12.918;2024-02-04T04:42:41;7.10;99.90
7014;DHT22;3547;50.774;12.918;2024-02-04T04:45:22;7.20;99.90
7014;DHT22;3547;50.774;12.918;2024-02-04T04:47:50;7.20;99.90
7014;DHT22;3547;50.774;12.918;2024-02-04T04:50:19;7.20;99.90
7014;DHT22;3547;50.774;12.918;2024-02-04T04:55:29;7.20;99.90
7014;DHT22;3547;50.774;12.918;2024-02-04T04:58:05;7.20;99.90
7014;DHT22;3547;50.774;12.918;2024-02-04T05:55:16;7.40;99.90
7014;DHT22;3547;50.774;12.918;2024-02-04T05:58:20;7.40;99.90
7014;DHT22;3547;50.774;12.918;2024-02-04T06:04:37;7.40;99.90
7014;DHT22;3547;50.774;12.918;2024-02-04T06:10:28;7.50;99.90
7014;DHT22;3547;50.774;12.918;2024-02-04T06:21:40;7.60;99.90
7014;DHT22;3547;50.774;12.918;2024-02-04T06:24:07;7.60;99.90
7014;DHT22;3547;50.774;12.918;2024-02-04T06:26:33;7.60;99.90
7014;DHT22;3547;50.774;12.918;2024-02-04T06:28:59;7.60;99.90
7014;DHT22;3547;50.774;12.918;2024-02-04T06:31:26;7.60;99.90
7014;DHT22;3547;50.774;12.918;2024-02-04T06:33:53;7.60;99.90
7014;DHT22;3547;50.774;12.918;2024-02-04T06:36:21;7.60;99.90
7014;DHT22;3547;50.774;12.918;2024-02-04T06:38:48;7.60;99.90
7014;DHT22;3547;50.774;12.918;2024-02-04T06:41:15;7.60;99.90
7014;DHT22;3547;50.774;12.918;2024-02-04T06:43:41;7.60;99.90
7014;DHT22;3547;50.774;12.918;2024-02-04T06:46:30;7.70;99.90
7014;DHT22;3547;50.774;12.918;2024-02-04T06:48:59;7.60;99.90
7014;DHT22;3547;50.774;12.918;2024-02-04T06:51:25;7.60;99.90
7014;DHT22;3547;50.774;12.918;2024-02-04T06:53:52;7.60;99.90
7014;DHT22;3547;50.774;12.918;2024-02-04T06:56:19;7.60;99.90
7014;DHT22;3547;50.774;12.918;2024-02-04T06:58:49;7.60;99.90
7014;DHT22;3547;50.774;12.918;2024-02-04T07:01:20;7.60;99.90
7014;DHT22;3547;50.774;12.918;2024-02-04T07:03:46;7.60;99.90
7014;DHT22;3547;50.774;12.918;2024-02-04T07:06:12;7.60;99.90
7014;DHT22;3547;50.774;12.918;2024-02-04T07:08:41;7.50;99.90
7014;DHT22;3547;50.774;12.918;2024-02-04T07:11:15;7.60;99.90
7014;DHT22;3547;50.774;12.918;2024-02-04T07:13:42;7.60;99.90
7014;DHT22;3547;50.774;12.918;2024-02-04T07:16:08;7.60;99.90
7014;DHT22;3547;50.774;12.918;2024-02-04T07:18:43;7.60;99.90
7014;DHT22;3547;50.774;12.918;2024-02-04T07:21:10;7.60;99.90
7014;DHT22;3547;50.774;12.918;2024-02-04T07:23:36;7.60;99.90
7014;DHT22;3547;50.774;12.918;2024-02-04T07:26:05;7.60;99.90
7014;DHT22;3547;50.774;12.918;2024-02-04T07:28:31;7.60;99.90
7014;DHT22;3547;50.774;12.918;2024-02-04T07:30:57;7.70;99.90
7014;DHT22;3547;50.774;12.918;2024-02-04T07:33:24;7.70;99.90
7014;DHT22;3547;50.774;12.918;2024-02-04T07:35:53;7.70;99.90
7014;DHT22;3547;50.774;12.918;2024-02-04T07:38:19;7.70;99.90
7014;DHT22;3547;50.774;12.918;2024-02-04T07:40:45;7.80;99.90
7014;DHT22;3547;50.774;12.918;2024-02-04T07:43:12;7.80;99.90
7014;DHT22;3547;50.774;12.918;2024-02-04T07:45:38;7.90;99.90
7014;DHT22;3547;50.774;12.918;2024-02-04T07:48:04;7.90;99.90
7014;DHT22;3547;50.774;12.918;2024-02-04T07:50:32;7.90;99.90
7014;DHT22;3547;50.774;12.918;2024-02-04T07:52:59;7.80;99.90
7014;DHT22;3547;50.774;12.918;2024-02-04T07:55:26;7.80;99.90
7014;DHT22;3547;50.774;12.918;2024-02-04T07:57:52;7.90;99.90
7014;DHT22;3547;50.774;12.918;2024-02-04T08:00:19;7.90;99.90
7014;DHT22;3547;50.774;12.918;2024-02-04T08:02:45;7.90;99.90
7014;DHT22;3547;50.774;12.918;2024-02-04T08:05:11;7.90;99.90
7014;DHT22;3547;50.774;12.918;2024-02-04T08:07:37;7.90;99.90
7014;DHT22;3547;50.774;12.918;2024-02-04T08:10:04;7.90;99.90
7014;DHT22;3547;50.774;12.918;2024-02-04T08:12:31;7.90;99.90
7014;DHT22;3547;50.774;12.918;2024-02-04T08:14:57;7.90;99.90
7014;DHT22;3547;50.774;12.918;2024-02-04T08:17:23;7.90;99.90
7014;DHT22;3547;50.774;12.918;2024-02-04T08:19:49;7.90;99.90
7014;DHT22;3547;50.774;12.918;2024-02-04T08:22:15;7.90;99.90
7014;DHT22;3547;50.774;12.918;2024-02-04T08:24:43;8.00;99.90
7014;DHT22;3547;50.774;12.918;2024-02-04T08:27:09;8.10;99.90
7014;DHT22;3547;50.774;12.918;2024-02-04T08:29:36;8.10;99.90
7014;DHT22;3547;50.774;12.918;2024-02-04T08:32:06;8.10;99.90
7014;DHT22;3547;50.774;12.918;2024-02-04T08:34:32;8.10;99.90
7014;DHT22;3547;50.774;12.918;2024-02-04T08:36:58;8.10;99.90
7014;DHT22;3547;50.774;12.918;2024-02-04T08:39:24;8.10;99.90
7014;DHT22;3547;50.774;12.918;2024-02-04T08:41:51;8.10;99.70
7014;DHT22;3547;50.774;12.918;2024-02-04T08:44:17;8.20;99.90
7014;DHT22;3547;50.774;12.918;2024-02-04T08:46:43;8.30;99.90
7014;DHT22;3547;50.774;12.918;2024-02-04T08:49:10;8.20;90.40
7014;DHT22;3547;50.774;12.918;2024-02-04T08:51:38;8.30;92.10
7014;DHT22;3547;50.774;12.918;2024-02-04T08:57:27;8.30;90.10
7014;DHT22;3547;50.774;12.918;2024-02-04T08:59:53;8.30;84.10
7014;DHT22;3547;50.774;12.918;2024-02-04T09:02:19;8.40;90.60
7014;DHT22;3547;50.774;12.918;2024-02-04T09:04:46;8.40;90.00
7014;DHT22;3547;50.774;12.918;2024-02-04T09:07:12;8.40;88.80
7014;DHT22;3547;50.774;12.918;2024-02-04T09:09:38;8.30;76.80
7014;DHT22;3547;50.774;12.918;2024-02-04T09:12:05;8.30;84.50
7014;DHT22;3547;50.774;12.918;2024-02-04T09:14:32;8.30;81.50
7014;DHT22;3547;50.774;12.918;2024-02-04T09:16:58;8.30;83.10
7014;DHT22;3547;50.774;12.918;2024-02-04T09:19:24;8.30;82.80
7014;DHT22;3547;50.774;12.918;2024-02-04T09:21:50;8.30;75.70
7014;DHT22;3547;50.774;12.918;2024-02-04T09:24:19;8.30;75.10
7014;DHT22;3547;50.774;12.918;2024-02-04T09:26:45;8.40;77.60
7014;DHT22;3547;50.774;12.918;2024-02-04T09:29:11;8.50;75.60
7014;DHT22;3547;50.774;12.918;2024-02-04T09:31:37;8.60;77.60
7014;DHT22;3547;50.774;12.918;2024-02-04T09:34:03;8.60;74.40
7014;DHT22;3547;50.774;12.918;2024-02-04T09:36:30;8.70;75.40
7014;DHT22;3547;50.774;12.918;2024-02-04T09:38:56;8.60;55.20
7014;DHT22;3547;50.774;12.918;2024-02-04T09:41:22;8.70;69.40
7014;DHT22;3547;50.774;12.918;2024-02-04T09:43:53;8.70;59.10
7014;DHT22;3547;50.774;12.918;2024-02-04T09:46:19;8.60;55.20
7014;DHT22;3547;50.774;12.918;2024-02-04T09:48:49;8.60;59.30
7014;DHT22;3547;50.774;12.918;2024-02-04T09:51:15;8.50;53.60
7014;DHT22;3547;50.774;12.918;2024-02-04T09:53:44;8.40;57.80
7014;DHT22;3547;50.774;12.918;2024-02-04T09:56:12;8.30;64.20
7014;DHT22;3547;50.774;12.918;2024-02-04T09:58:38;8.20;78.60
7014;DHT22;3547;50.774;12.918;2024-02-04T10:01:04;8.20;78.80
7014;DHT22;3547;50.774;12.918;2024-02-04T10:07:03;8.20;80.10
7014;DHT22;3547;50.774;12.918;2024-02-04T10:09:30;8.10;90.50
7014;DHT22;3547;50.774;12.918;2024-02-04T10:11:57;8.00;97.30
7014;DHT22;3547;50.774;12.918;2024-02-04T10:14:23;8.10;99.90
7014;DHT22;3547;50.774;12.918;2024-02-04T10:16:50;8.00;99.90
7014;DHT22;3547;50.774;12.918;2024-02-04T10:19:17;7.90;99.90
7014;DHT22;3547;50.774;12.918;2024-02-04T10:21:43;8.00;99.90
7014;DHT22;3547;50.774;12.918;2024-02-04T10:24:09;8.00;99.90
7014;DHT22;3547;50.774;12.918;2024-02-04T10:26:36;8.00;99.90
7014;DHT22;3547;50.774;12.918;2024-02-04T10:29:03;8.10;99.90
7014;DHT22;3547;50.774;12.918;2024-02-04T10:31:30;8.30;98.10
7014;DHT22;3547;50.774;12.918;2024-02-04T10:33:56;8.40;82.30
7014;DHT22;3547;50.774;12.918;2024-02-04T10:36:22;8.40;90.60
7014;DHT22;3547;50.774;12.918;2024-02-04T10:38:49;8.40;79.80
7014;DHT22;3547;50.774;12.918;2024-02-04T10:41:16;8.40;70.30
7014;DHT22;3547;50.774;12.918;2024-02-04T10:43:44;8.40;68.00
7014;DHT22;3547;50.774;12.918;2024-02-04T10:46:20;8.50;71.70
7014;DHT22;3547;50.774;12.918;2024-02-04T10:48:57;8.50;60.40
7014;DHT22;3547;50.774;12.918;2024-02-04T10:51:27;8.50;58.00
7014;DHT22;3547;50.774;12.918;2024-02-04T10:53:54;8.50;53.20
7014;DHT22;3547;50.774;12.918;2024-02-04T10:56:25;8.50;51.70
7014;DHT22;3547;50.774;12.918;2024-02-04T10:58:56;8.50;53.20
7014;DHT22;3547;50.774;12.918;2024-02-04T11:01:26;8.50;48.80
7014;DHT22;3547;50.774;12.918;2024-02-04T11:03:53;8.50;42.80
7014;DHT22;3547;50.774;12.918;2024-02-04T11:06:23;8.60;44.60
7014;DHT22;3547;50.774;12.918;2024-02-04T11:08:51;8.80;53.10
7014;DHT22;3547;50.774;12.918;2024-02-04T11:11:21;8.80;40.20
7014;DHT22;3547;50.774;12.918;2024-02-04T11:13:56;8.80;37.20
7014;DHT22;3547;50.774;12.918;2024-02-04T11:19:15;8.60;28.70
7014;DHT22;3547;50.774;12.918;2024-02-04T11:22:16;8.60;29.20
7014;DHT22;3547;50.774;12.918;2024-02-04T11:27:33;8.60;27.50
7014;DHT22;3547;50.774;12.918;2024-02-04T11:29:59;8.60;30.40
7014;DHT22;3547;50.774;12.918;2024-02-04T11:32:26;8.70;28.10
7014;DHT22;3547;50.774;12.918;2024-02-04T11:34:54;8.70;26.70
7014;DHT22;3547;50.774;12.918;2024-02-04T11:37:27;8.60;34.70
7014;DHT22;3547;50.774;12.918;2024-02-04T11:39:54;8.50;50.20
7014;DHT22;3547;50.774;12.918;2024-02-04T11:42:23;8.60;59.00
7014;DHT22;3547;50.774;12.918;2024-02-04T11:44:49;8.40;65.50
7014;DHT22;3547;50.774;12.918;2024-02-04T11:47:26;8.30;66.60
7014;DHT22;3547;50.774;12.918;2024-02-04T11:49:57;8.30;76.10
7014;DHT22;3547;50.774;12.918;2024-02-04T11:52:23;8.30;73.70
7014;DHT22;3547;50.774;12.918;2024-02-04T11:54:49;8.30;78.70
7014;DHT22;3547;50.774;12.918;2024-02-04T11:57:19;8.20;68.60
7014;DHT22;3547;50.774;12.918;2024-02-04T11:59:47;8.20;81.30
7014;DHT22;3547;50.774;12.918;2024-02-04T12:02:16;8.20;80.00
7014;DHT22;3547;50.774;12.918;2024-02-04T12:04:44;8.20;71.80
7014;DHT22;3547;50.774;12.918;2024-02-04T12:07:10;8.10;83.50
7014;DHT22;3547;50.774;12.918;2024-02-04T12:09:43;8.10;90.80
7014;DHT22;3547;50.774;12.918;2024-02-04T12:12:19;8.10;93.20
7014;DHT22;3547;50.774;12.918;2024-02-04T12:14:46;8.10;94.50
7014;DHT22;3547;50.774;12.918;2024-02-04T12:17:13;8.00;94.50
7014;DHT22;3547;50.774;12.918;2024-02-04T12:19:39;8.00;96.10
7014;DHT22;3547;50.774;12.918;2024-02-04T12:22:05;8.00;99.90
7014;DHT22;3547;50.774;12.918;2024-02-04T12:24:36;8.10;99.90
7014;DHT22;3547;50.774;12.918;2024-02-04T12:27:04;8.10;99.90
7014;DHT22;3547;50.774;12.918;2024-02-04T12:29:34;8.10;99.90
7014;DHT22;3547;50.774;12.918;2024-02-04T12:32:02;8.00;99.90
7014;DHT22;3547;50.774;12.918;2024-02-04T12:34:30;8.10;99.90
7014;DHT22;3547;50.774;12.918;2024-02-04T12:37:14;8.00;99.90
7014;DHT22;3547;50.774;12.918;2024-02-04T12:42:39;7.90;99.90
7014;DHT22;3547;50.774;12.918;2024-02-04T13:23:04;8.10;1.00
7014;DHT22;3547;50.774;12.918;2024-02-04T13:25:37;8.00;1.00
7014;DHT22;3547;50.774;12.918;2024-02-04T13:28:12;7.90;1.00
7014;DHT22;3547;50.774;12.918;2024-02-04T13:30:47;7.80;1.00
7014;DHT22;3547;50.774;12.918;2024-02-04T13:33:14;7.90;1.00
7014;DHT22;3547;50.774;12.918;2024-02-04T13:35:49;7.80;1.00
7014;DHT22;3547;50.774;12.918;2024-02-04T13:38:19;7.80;1.00
7014;DHT22;3547;50.774;12.918;2024-02-04T13:40:48;7.80;1.00
7014;DHT22;3547;50.774;12.918;2024-02-04T13:43:27;7.70;1.00
7014;DHT22;3547;50.774;12.918;2024-02-04T13:45:53;7.60;1.00
7014;DHT22;3547;50.774;12.918;2024-02-04T13:48:36;7.50;1.00
7014;DHT22;3547;50.774;12.918;2024-02-04T13:51:23;7.60;1.00
7014;DHT22;3547;50.774;12.918;2024-02-04T13:53:49;7.60;1.00
7014;DHT22;3547;50.774;12.918;2024-02-04T13:56:20;7.50;1.00
7014;DHT22;3547;50.774;12.918;2024-02-04T13:58:46;7.50;1.00
7014;DHT22;3547;50.774;12.918;2024-02-04T14:01:13;7.50;1.00
7014;DHT22;3547;50.774;12.918;2024-02-04T14:03:41;7.60;1.00
7014;DHT22;3547;50.774;12.918;2024-02-04T14:06:10;7.50;1.00
7014;DHT22;3547;50.774;12.918;2024-02-04T14:08:38;7.50;1.00
7014;DHT22;3547;50.774;12.918;2024-02-04T14:11:05;7.50;32.90
7014;DHT22;3547;50.774;12.918;2024-02-04T14:13:31;7.50;73.80
7014;DHT22;3547;50.774;12.918;2024-02-04T14:15:59;7.60;99.90
7014;DHT22;3547;50.774;12.918;2024-02-04T14:18:25;7.70;99.90
7014;DHT22;3547;50.774;12.918;2024-02-04T14:20:51;7.60;99.90
7014;DHT22;3547;50.774;12.918;2024-02-04T14:23:21;7.60;95.20
7014;DHT22;3547;50.774;12.918;2024-02-04T14:25:47;7.70;99.90
7014;DHT22;3547;50.774;12.918;2024-02-04T14:28:13;7.60;57.80
7014;DHT22;3547;50.774;12.918;2024-02-04T14:30:39;7.60;64.10
7014;DHT22;3547;50.774;12.918;2024-02-04T14:33:06;7.60;58.60
7014;DHT22;3547;50.774;12.918;2024-02-04T14:35:37;7.60;99.80
7014;DHT22;3547;50.774;12.918;2024-02-04T14:38:05;7.60;99.90
7014;DHT22;3547;50.774;12.918;2024-02-04T14:40:32;7.60;99.90
7014;DHT22;3547;50.774;12.918;2024-02-04T14:42:59;7.50;99.90
7014;DHT22;3547;50.774;12.918;2024-02-04T14:45:26;7.60;99.90
7014;DHT22;3547;50.774;12.918;2024-02-04T14:47:52;7.60;1.00
7014;DHT22;3547;50.774;12.918;2024-02-04T14:50:19;7.50;1.00
7014;DHT22;3547;50.774;12.918;2024-02-04T14:52:47;7.50;1.00
7014;DHT22;3547;50.774;12.918;2024-02-04T14:55:13;7.50;1.00
7014;DHT22;3547;50.774;12.918;2024-02-04T14:57:39;7.50;1.00
7014;DHT22;3547;50.774;12.918;2024-02-04T15:00:06;7.60;99.90
7014;DHT22;3547;50.774;12.918;2024-02-04T15:02:32;7.60;99.90
7014;DHT22;3547;50.774;12.918;2024-02-04T15:04:59;7.60;99.90
7014;DHT22;3547;50.774;12.918;2024-02-04T15:07:25;7.70;99.90
7014;DHT22;3547;50.774;12.918;2024-02-04T15:09:51;7.70;99.90
7014;DHT22;3547;50.774;12.918;2024-02-04T15:12:19;7.70;99.90
7014;DHT22;3547;50.774;12.918;2024-02-04T15:14:46;7.70;99.90
7014;DHT22;3547;50.774;12.918;2024-02-04T15:17:12;7.80;99.90
7014;DHT22;3547;50.774;12.918;2024-02-04T15:19:38;7.80;91.00
7014;DHT22;3547;50.774;12.918;2024-02-04T15:22:05;7.70;26.80
7014;DHT22;3547;50.774;12.918;2024-02-04T15:24:31;7.80;40.30
7014;DHT22;3547;50.774;12.918;2024-02-04T15:26:59;7.80;26.20
7014;DHT22;3547;50.774;12.918;2024-02-04T15:29:34;7.70;10.70
7014;DHT22;3547;50.774;12.918;2024-02-04T15:32:03;7.80;1.00
7014;DHT22;3547;50.774;12.918;2024-02-04T15:34:33;7.80;1.00
7014;DHT22;3547;50.774;12.918;2024-02-04T15:36:59;7.90;1.00
7014;DHT22;3547;50.774;12.918;2024-02-04T15:39:26;7.90;1.00
7014;DHT22;3547;50.774;12.918;2024-02-04T15:41:52;7.90;1.00
7014;DHT22;3547;50.774;12.918;2024-02-04T15:44:18;7.90;1.00
7014;DHT22;3547;50.774;12.918;2024-02-04T15:46:48;7.90;1.00
7014;DHT22;3547;50.774;12.918;2024-02-04T15:49:23;7.90;1.00
7014;DHT22;3547;50.774;12.918;2024-02-04T15:51:50;7.90;1.00
7014;DHT22;3547;50.774;12.918;2024-02-04T15:54:17;7.90;1.00
7014;DHT22;3547;50.774;12.918;2024-02-04T15:56:43;7.80;1.00
7014;DHT22;3547;50.774;12.918;2024-02-04T15:59:12;7.90;1.00
7014;DHT22;3547;50.774;12.918;2024-02-04T16:01:39;7.90;1.00
7014;DHT22;3547;50.774;12.918;2024-02-04T16:04:07;7.80;1.00
7014;DHT22;3547;50.774;12.918;2024-02-04T16:06:34;7.90;1.00
7014;DHT22;3547;50.774;12.918;2024-02-04T16:09:00;7.90;1.00
7014;DHT22;3547;50.774;12.918;2024-02-04T16:11:31;7.90;1.00
7014;DHT22;3547;50.774;12.918;2024-02-04T16:14:02;7.90;1.00
7014;DHT22;3547;50.774;12.918;2024-02-04T16:16:34;7.90;1.00
7014;DHT22;3547;50.774;12.918;2024-02-04T16:19:01;7.80;1.00
7014;DHT22;3547;50.774;12.918;2024-02-04T16:21:29;7.80;1.00
7014;DHT22;3547;50.774;12.918;2024-02-04T16:23:56;7.80;1.00
7014;DHT22;3547;50.774;12.918;2024-02-04T16:26:22;7.80;1.00
7014;DHT22;3547;50.774;12.918;2024-02-04T16:28:48;7.70;1.00
7014;DHT22;3547;50.774;12.918;2024-02-04T16:31:15;7.70;1.00
7014;DHT22;3547;50.774;12.918;2024-02-04T16:33:41;7.70;1.00
7014;DHT22;3547;50.774;12.918;2024-02-04T16:36:08;7.70;1.00
7014;DHT22;3547;50.774;12.918;2024-02-04T16:38:34;7.70;1.00
7014;DHT22;3547;50.774;12.918;2024-02-04T16:41:01;7.70;1.00
7014;DHT22;3547;50.774;12.918;2024-02-04T16:43:27;7.70;1.00
7014;DHT22;3547;50.774;12.918;2024-02-04T16:45:53;7.70;1.00
7014;DHT22;3547;50.774;12.918;2024-02-04T16:48:19;7.70;1.00
7014;DHT22;3547;50.774;12.918;2024-02-04T16:50:45;7.80;1.00
7014;DHT22;3547;50.774;12.918;2024-02-04T16:53:14;7.80;1.00
7014;DHT22;3547;50.774;12.918;2024-02-04T16:55:40;7.80;1.30
7014;DHT22;3547;50.774;12.918;2024-02-04T16:58:07;7.80;1.80
7014;DHT22;3547;50.774;12.918;2024-02-04T17:01:00;7.80;6.60
7014;DHT22;3547;50.774;12.918;2024-02-04T17:03:48;7.80;1.00
7014;DHT22;3547;50.774;12.918;2024-02-04T17:06:16;7.80;1.00
7014;DHT22;3547;50.774;12.918;2024-02-04T17:08:43;7.80;1.00
7014;DHT22;3547;50.774;12.918;2024-02-04T17:11:10;7.80;1.00
7014;DHT22;3547;50.774;12.918;2024-02-04T17:13:39;7.70;1.00
7014;DHT22;3547;50.774;12.918;2024-02-04T17:16:16;7.70;1.00
7014;DHT22;3547;50.774;12.918;2024-02-04T17:19:15;7.70;1.00
7014;DHT22;3547;50.774;12.918;2024-02-04T17:21:57;7.70;1.00
7014;DHT22;3547;50.774;12.918;2024-02-04T17:24:27;7.70;1.00
7014;DHT22;3547;50.774;12.918;2024-02-04T17:26:55;7.70;1.00
7014;DHT22;3547;50.774;12.918;2024-02-04T17:29:28;7.70;1.00
7014;DHT22;3547;50.774;12.918;2024-02-04T17:32:01;7.70;1.00
7014;DHT22;3547;50.774;12.918;2024-02-04T17:34:31;7.70;1.00
7014;DHT22;3547;50.774;12.918;2024-02-04T17:40:25;7.70;1.00
7014;DHT22;3547;50.774;12.918;2024-02-04T17:42:59;7.60;1.00
7014;DHT22;3547;50.774;12.918;2024-02-04T17:45:31;7.60;1.00
7014;DHT22;3547;50.774;12.918;2024-02-04T17:48:00;7.60;1.00
7014;DHT22;3547;50.774;12.918;2024-02-04T17:50:32;7.60;1.00
7014;DHT22;3547;50.774;12.918;2024-02-04T17:52:58;7.60;1.00
7014;DHT22;3547;50.774;12.918;2024-02-04T17:55:24;7.60;6.80
7014;DHT22;3547;50.774;12.918;2024-02-04T17:57:56;7.50;22.00
7014;DHT22;3547;50.774;12.918;2024-02-04T18:00:28;7.50;39.50
7014;DHT22;3547;50.774;12.918;2024-02-04T18:02:59;7.50;46.20
7014;DHT22;3547;50.774;12.918;2024-02-04T18:05:25;7.60;68.10
7014;DHT22;3547;50.774;12.918;2024-02-04T18:07:52;7.50;99.90
7014;DHT22;3547;50.774;12.918;2024-02-04T18:10:19;7.60;99.90
7014;DHT22;3547;50.774;12.918;2024-02-04T18:12:45;7.50;99.90
7014;DHT22;3547;50.774;12.918;2024-02-04T18:15:12;7.60;99.90
7014;DHT22;3547;50.774;12.918;2024-02-04T18:17:42;7.60;99.90
7014;DHT22;3547;50.774;12.918;2024-02-04T18:20:10;7.60;99.90
7014;DHT22;3547;50.774;12.918;2024-02-04T18:22:37;7.70;99.90
7014;DHT22;3547;50.774;12.918;2024-02-04T18:25:06;7.60;99.90
7014;DHT22;3547;50.774;12.918;2024-02-04T18:27:39;7.60;99.90
7014;DHT22;3547;50.774;12.918;2024-02-04T18:30:10;7.60;99.90
7014;DHT22;3547;50.774;12.918;2024-02-04T18:32:43;7.60;1.00
7014;DHT22;3547;50.774;12.918;2024-02-04T18:35:09;7.60;1.00
7014;DHT22;3547;50.774;12.918;2024-02-04T18:37:35;7.60;27.10
7014;DHT22;3547;50.774;12.918;2024-02-04T18:40:01;7.60;27.90
7014;DHT22;3547;50.774;12.918;2024-02-04T18:42:30;7.60;99.90
7014;DHT22;3547;50.774;12.918;2024-02-04T18:44:59;7.60;58.60
7014;DHT22;3547;50.774;12.918;2024-02-04T18:47:25;7.60;7.70
7014;DHT22;3547;50.774;12.918;2024-02-04T18:49:51;7.60;1.00
7014;DHT22;3547;50.774;12.918;2024-02-04T18:52:20;7.60;3.10
7014;DHT22;3547;50.774;12.918;2024-02-04T18:54:46;7.60;74.80
7014;DHT22;3547;50.774;12.918;2024-02-04T18:57:13;7.70;99.90
7014;DHT22;3547;50.774;12.918;2024-02-04T18:59:39;7.70;95.90
7014;DHT22;3547;50.774;12.918;2024-02-04T19:02:05;7.70;23.40
7014;DHT22;3547;50.774;12.918;2024-02-04T19:04:34;7.70;99.90
7014;DHT22;3547;50.774;12.918;2024-02-04T19:07:00;7.80;99.90
7014;DHT22;3547;50.774;12.918;2024-02-04T19:09:27;7.70;63.10
7014;DHT22;3547;50.774;12.918;2024-02-04T19:11:54;7.70;99.90
7014;DHT22;3547;50.774;12.918;2024-02-04T19:14:20;7.70;99.90
7014;DHT22;3547;50.774;12.918;2024-02-04T19:16:47;7.80;52.90
7014;DHT22;3547;50.774;12.918;2024-02-04T19:19:14;7.70;99.90
7014;DHT22;3547;50.774;12.918;2024-02-04T19:21:50;7.80;81.20